Airfield :







YOU CAN JOIN US ON...

 
LOGIN :

Register | Disclaimer

   EN    FR    IT 

 









Legend :    VFR   Marginal VFR   IFR   Intensive IFR   Very Intensive IFR
Visi :
Ceiling :
>= 8 km
>= 3000ft
5 to 8 km
1000 to 3000 ft
1500m to 5 km
500 to 1000 ft
800 to 1500m
200 to 500 ft
< 800m
< 200 ft
Symbols :   Thunderstorms  Fog  Heavy snow  Heavy precipitations  Wind > 20 kt






- Airport Elevation : 1166 ft


KMPV - Edward F Knapp State

EXPIRED METARs :
  • 031451Z AUTO 33011G16KT 300V360 10SM CLR 23/10 A3004 RMK AO2 SLP169 T02280100 51007
  • 032251Z AUTO 33007KT 10SM CLR 23/08 A3007 RMK AO2 SLP179 T02280083
  • 032151Z AUTO 30008KT 10SM FEW070 23/09 A3005 RMK AO2 SLP174 T02280089
  • 032051Z AUTO 31008KT 10SM FEW070 24/09 A3005 RMK AO2 SLP173 T02390089 55001

TAF KMPV
Valid from the 03 at 20:00 until the 04 at 18:00 UTC


031937Z 0320/0418 34010G16KT P6SM SCT060
FM040000 VRB04KT P6SM SKC
FM041300 30006KT P6SM SCT180
KZBW FIR / North America



MET'MAP, your aeronautical weather chart ! - Copyright ORBIFLY December 2007 - Disclaimer

ORBIFLY MET'MAP TEAM :

Programming & Development : Alexandra Zaïnal
Original concept : Baudouin d'Aumeries
Technical & hardware support : Manuel Goepfert
Assistance : Marc-Olivier Méhu




SOURCES & CREDITS :

   NOAA